sensor_id;sensor_type;location;lat;lon;timestamp;P1;durP1;ratioP1;P2;durP2;ratioP2
24619;SDS011;12763;55.802;37.404;2024-02-26T00:00:03;8.20;;;3.60;;
24619;SDS011;12763;55.802;37.404;2024-02-26T00:02:37;5.30;;;3.17;;
24619;SDS011;12763;55.802;37.404;2024-02-26T00:05:05;7.35;;;3.85;;
24619;SDS011;12763;55.802;37.404;2024-02-26T00:07:32;7.75;;;3.72;;
24619;SDS011;12763;55.802;37.404;2024-02-26T00:09:58;8.23;;;3.78;;
24619;SDS011;12763;55.802;37.404;2024-02-26T00:12:24;9.07;;;3.88;;
24619;SDS011;12763;55.802;37.404;2024-02-26T00:14:50;12.73;;;3.95;;
24619;SDS011;12763;55.802;37.404;2024-02-26T00:17:18;5.70;;;3.63;;
24619;SDS011;12763;55.802;37.404;2024-02-26T00:19:44;8.90;;;3.42;;
24619;SDS011;12763;55.802;37.404;2024-02-26T00:22:10;10.15;;;3.72;;
24619;SDS011;12763;55.802;37.404;2024-02-26T00:24:35;8.25;;;3.70;;
24619;SDS011;12763;55.802;37.404;2024-02-26T00:27:01;8.25;;;3.30;;
24619;SDS011;12763;55.802;37.404;2024-02-26T00:29:27;11.40;;;3.47;;
24619;SDS011;12763;55.802;37.404;2024-02-26T00:31:53;8.30;;;3.35;;
24619;SDS011;12763;55.802;37.404;2024-02-26T00:34:19;7.75;;;3.97;;
24619;SDS011;12763;55.802;37.404;2024-02-26T00:36:45;7.07;;;3.38;;
24619;SDS011;12763;55.802;37.404;2024-02-26T00:39:11;7.40;;;3.55;;
24619;SDS011;12763;55.802;37.404;2024-02-26T00:41:38;5.75;;;3.40;;
24619;SDS011;12763;55.802;37.404;2024-02-26T00:44:05;7.28;;;3.55;;
24619;SDS011;12763;55.802;37.404;2024-02-26T00:46:31;8.43;;;3.35;;
24619;SDS011;12763;55.802;37.404;2024-02-26T00:48:57;8.93;;;3.95;;
24619;SDS011;12763;55.802;37.404;2024-02-26T00:51:22;6.32;;;3.75;;
24619;SDS011;12763;55.802;37.404;2024-02-26T00:53:48;5.40;;;3.50;;
24619;SDS011;12763;55.802;37.404;2024-02-26T00:56:14;7.65;;;3.20;;
24619;SDS011;12763;55.802;37.404;2024-02-26T00:58:40;8.45;;;3.17;;
24619;SDS011;12763;55.802;37.404;2024-02-26T01:01:06;5.68;;;4.05;;
24619;SDS011;12763;55.802;37.404;2024-02-26T01:03:32;5.97;;;3.25;;
24619;SDS011;12763;55.802;37.404;2024-02-26T01:05:58;6.60;;;3.08;;
24619;SDS011;12763;55.802;37.404;2024-02-26T01:08:24;5.68;;;3.33;;
24619;SDS011;12763;55.802;37.404;2024-02-26T01:10:49;10.38;;;3.78;;
24619;SDS011;12763;55.802;37.404;2024-02-26T01:13:15;7.60;;;3.60;;
24619;SDS011;12763;55.802;37.404;2024-02-26T01:15:41;8.95;;;3.47;;
24619;SDS011;12763;55.802;37.404;2024-02-26T01:18:09;9.77;;;3.42;;
24619;SDS011;12763;55.802;37.404;2024-02-26T01:20:35;8.27;;;3.42;;
24619;SDS011;12763;55.802;37.404;2024-02-26T01:23:01;10.48;;;3.50;;
24619;SDS011;12763;55.802;37.404;2024-02-26T01:25:26;7.15;;;3.30;;
24619;SDS011;12763;55.802;37.404;2024-02-26T01:27:53;7.90;;;3.22;;
24619;SDS011;12763;55.802;37.404;2024-02-26T01:30:19;9.23;;;3.40;;
24619;SDS011;12763;55.802;37.404;2024-02-26T01:32:45;10.73;;;4.38;;
24619;SDS011;12763;55.802;37.404;2024-02-26T01:35:11;8.90;;;3.92;;
24619;SDS011;12763;55.802;37.404;2024-02-26T01:37:37;7.82;;;3.70;;
24619;SDS011;12763;55.802;37.404;2024-02-26T01:40:03;10.80;;;4.10;;
24619;SDS011;12763;55.802;37.404;2024-02-26T01:42:31;7.05;;;3.58;;
24619;SDS011;12763;55.802;37.404;2024-02-26T01:44:58;5.60;;;3.00;;
24619;SDS011;12763;55.802;37.404;2024-02-26T01:47:24;10.85;;;3.35;;
24619;SDS011;12763;55.802;37.404;2024-02-26T01:49:52;7.97;;;3.75;;
24619;SDS011;12763;55.802;37.404;2024-02-26T01:52:19;8.73;;;3.35;;
24619;SDS011;12763;55.802;37.404;2024-02-26T01:54:47;6.55;;;2.95;;
24619;SDS011;12763;55.802;37.404;2024-02-26T01:57:13;8.73;;;3.75;;
24619;SDS011;12763;55.802;37.404;2024-02-26T01:59:39;10.25;;;3.80;;
24619;SDS011;12763;55.802;37.404;2024-02-26T02:02:07;6.30;;;3.17;;
24619;SDS011;12763;55.802;37.404;2024-02-26T02:04:35;8.98;;;3.45;;
24619;SDS011;12763;55.802;37.404;2024-02-26T02:07:02;8.02;;;3.33;;
24619;SDS011;12763;55.802;37.404;2024-02-26T02:09:29;7.13;;;3.22;;
24619;SDS011;12763;55.802;37.404;2024-02-26T02:11:55;6.35;;;3.15;;
24619;SDS011;12763;55.802;37.404;2024-02-26T02:14:21;12.82;;;3.53;;
24619;SDS011;12763;55.802;37.404;2024-02-26T02:16:47;8.45;;;3.47;;
24619;SDS011;12763;55.802;37.404;2024-02-26T02:19:14;9.90;;;3.53;;
24619;SDS011;12763;55.802;37.404;2024-02-26T02:21:40;7.88;;;3.60;;
24619;SDS011;12763;55.802;37.404;2024-02-26T02:24:06;8.27;;;3.22;;
24619;SDS011;12763;55.802;37.404;2024-02-26T02:26:32;5.25;;;2.83;;
24619;SDS011;12763;55.802;37.404;2024-02-26T02:28:57;9.95;;;3.97;;
24619;SDS011;12763;55.802;37.404;2024-02-26T02:31:24;3.95;;;2.80;;
24619;SDS011;12763;55.802;37.404;2024-02-26T02:33:50;6.35;;;3.28;;
24619;SDS011;12763;55.802;37.404;2024-02-26T02:36:16;5.18;;;2.58;;
24619;SDS011;12763;55.802;37.404;2024-02-26T02:38:48;6.35;;;2.95;;
24619;SDS011;12763;55.802;37.404;2024-02-26T02:41:16;6.75;;;3.13;;
24619;SDS011;12763;55.802;37.404;2024-02-26T02:43:42;5.60;;;2.45;;
24619;SDS011;12763;55.802;37.404;2024-02-26T02:46:08;8.07;;;3.13;;
24619;SDS011;12763;55.802;37.404;2024-02-26T02:48:34;5.32;;;2.60;;
24619;SDS011;12763;55.802;37.404;2024-02-26T02:51:00;6.85;;;2.83;;
24619;SDS011;12763;55.802;37.404;2024-02-26T02:53:26;5.57;;;2.70;;
24619;SDS011;12763;55.802;37.404;2024-02-26T02:55:51;4.60;;;2.70;;
24619;SDS011;12763;55.802;37.404;2024-02-26T02:58:17;9.93;;;2.80;;
24619;SDS011;12763;55.802;37.404;2024-02-26T03:00:43;5.90;;;2.72;;
24619;SDS011;12763;55.802;37.404;2024-02-26T03:03:09;7.85;;;3.50;;
24619;SDS011;12763;55.802;37.404;2024-02-26T03:05:35;6.32;;;2.50;;
24619;SDS011;12763;55.802;37.404;2024-02-26T03:08:01;6.00;;;3.05;;
24619;SDS011;12763;55.802;37.404;2024-02-26T03:10:27;4.35;;;2.55;;
24619;SDS011;12763;55.802;37.404;2024-02-26T03:12:53;5.80;;;3.25;;
24619;SDS011;12763;55.802;37.404;2024-02-26T03:15:19;5.25;;;2.58;;
24619;SDS011;12763;55.802;37.404;2024-02-26T03:17:45;5.85;;;2.63;;
24619;SDS011;12763;55.802;37.404;2024-02-26T03:20:11;4.05;;;2.70;;
24619;SDS011;12763;55.802;37.404;2024-02-26T03:22:38;8.05;;;2.53;;
24619;SDS011;12763;55.802;37.404;2024-02-26T03:25:05;4.32;;;2.40;;
24619;SDS011;12763;55.802;37.404;2024-02-26T03:27:32;4.38;;;2.35;;
24619;SDS011;12763;55.802;37.404;2024-02-26T03:29:58;5.40;;;2.22;;
24619;SDS011;12763;55.802;37.404;2024-02-26T03:32:24;6.00;;;2.70;;
24619;SDS011;12763;55.802;37.404;2024-02-26T03:34:50;11.55;;;3.72;;
24619;SDS011;12763;55.802;37.404;2024-02-26T03:37:19;5.05;;;3.28;;
24619;SDS011;12763;55.802;37.404;2024-02-26T03:39:45;9.55;;;2.75;;
24619;SDS011;12763;55.802;37.404;2024-02-26T03:42:11;8.02;;;2.55;;
24619;SDS011;12763;55.802;37.404;2024-02-26T03:44:37;6.10;;;2.70;;
24619;SDS011;12763;55.802;37.404;2024-02-26T03:47:03;11.38;;;3.72;;
24619;SDS011;12763;55.802;37.404;2024-02-26T03:49:29;9.25;;;2.72;;
24619;SDS011;12763;55.802;37.404;2024-02-26T03:51:55;7.30;;;3.22;;
24619;SDS011;12763;55.802;37.404;2024-02-26T03:54:21;8.25;;;3.33;;
24619;SDS011;12763;55.802;37.404;2024-02-26T03:56:47;7.32;;;2.85;;
24619;SDS011;12763;55.802;37.404;2024-02-26T03:59:13;6.97;;;2.92;;
24619;SDS011;12763;55.802;37.404;2024-02-26T04:01:39;9.00;;;3.00;;
24619;SDS011;12763;55.802;37.404;2024-02-26T04:04:10;6.47;;;2.83;;
24619;SDS011;12763;55.802;37.404;2024-02-26T04:06:35;5.55;;;2.90;;
24619;SDS011;12763;55.802;37.404;2024-02-26T04:09:01;6.35;;;2.83;;
24619;SDS011;12763;55.802;37.404;2024-02-26T04:11:29;8.95;;;3.28;;
24619;SDS011;12763;55.802;37.404;2024-02-26T04:13:55;9.50;;;2.85;;
24619;SDS011;12763;55.802;37.404;2024-02-26T04:16:22;5.78;;;3.15;;
24619;SDS011;12763;55.802;37.404;2024-02-26T04:18:48;36.40;;;3.88;;
24619;SDS011;12763;55.802;37.404;2024-02-26T04:21:14;5.13;;;2.58;;
24619;SDS011;12763;55.802;37.404;2024-02-26T04:23:40;7.15;;;3.20;;
24619;SDS011;12763;55.802;37.404;2024-02-26T04:26:06;7.40;;;3.83;;
24619;SDS011;12763;55.802;37.404;2024-02-26T04:28:32;6.65;;;3.17;;
24619;SDS011;12763;55.802;37.404;2024-02-26T04:30:57;6.80;;;3.10;;
24619;SDS011;12763;55.802;37.404;2024-02-26T04:33:23;6.63;;;3.05;;
24619;SDS011;12763;55.802;37.404;2024-02-26T04:35:49;8.45;;;3.42;;
24619;SDS011;12763;55.802;37.404;2024-02-26T04:38:15;9.13;;;2.88;;
24619;SDS011;12763;55.802;37.404;2024-02-26T04:40:44;5.55;;;2.97;;
24619;SDS011;12763;55.802;37.404;2024-02-26T04:43:15;6.93;;;2.92;;
24619;SDS011;12763;55.802;37.404;2024-02-26T04:45:53;9.07;;;2.90;;
24619;SDS011;12763;55.802;37.404;2024-02-26T04:48:19;6.85;;;3.10;;
24619;SDS011;12763;55.802;37.404;2024-02-26T04:50:45;5.97;;;2.38;;
24619;SDS011;12763;55.802;37.404;2024-02-26T04:53:11;9.90;;;3.03;;
24619;SDS011;12763;55.802;37.404;2024-02-26T04:55:37;5.32;;;2.83;;
24619;SDS011;12763;55.802;37.404;2024-02-26T04:58:03;5.80;;;2.90;;
24619;SDS011;12763;55.802;37.404;2024-02-26T05:00:29;6.13;;;3.35;;
24619;SDS011;12763;55.802;37.404;2024-02-26T05:02:55;6.05;;;3.05;;
24619;SDS011;12763;55.802;37.404;2024-02-26T05:05:20;6.93;;;3.30;;
24619;SDS011;12763;55.802;37.404;2024-02-26T05:07:46;6.88;;;3.53;;
24619;SDS011;12763;55.802;37.404;2024-02-26T05:10:30;7.82;;;3.28;;
24619;SDS011;12763;55.802;37.404;2024-02-26T05:12:56;12.27;;;3.63;;
24619;SDS011;12763;55.802;37.404;2024-02-26T05:15:22;11.52;;;3.90;;
24619;SDS011;12763;55.802;37.404;2024-02-26T05:17:48;11.65;;;3.92;;
24619;SDS011;12763;55.802;37.404;2024-02-26T05:20:14;5.57;;;3.58;;
24619;SDS011;12763;55.802;37.404;2024-02-26T05:22:40;7.60;;;3.45;;
24619;SDS011;12763;55.802;37.404;2024-02-26T05:25:06;12.45;;;4.18;;
24619;SDS011;12763;55.802;37.404;2024-02-26T05:27:32;12.43;;;3.95;;
24619;SDS011;12763;55.802;37.404;2024-02-26T05:29:58;9.82;;;3.72;;
24619;SDS011;12763;55.802;37.404;2024-02-26T05:32:23;7.63;;;3.00;;
24619;SDS011;12763;55.802;37.404;2024-02-26T05:34:49;7.68;;;3.40;;
24619;SDS011;12763;55.802;37.404;2024-02-26T05:37:15;12.32;;;4.15;;
24619;SDS011;12763;55.802;37.404;2024-02-26T05:39:41;9.13;;;4.05;;
24619;SDS011;12763;55.802;37.404;2024-02-26T05:42:07;8.82;;;3.95;;
24619;SDS011;12763;55.802;37.404;2024-02-26T05:44:34;9.07;;;4.13;;
24619;SDS011;12763;55.802;37.404;2024-02-26T05:47:00;9.75;;;3.35;;
24619;SDS011;12763;55.802;37.404;2024-02-26T05:49:26;12.07;;;4.10;;
24619;SDS011;12763;55.802;37.404;2024-02-26T05:51:52;8.65;;;3.60;;
24619;SDS011;12763;55.802;37.404;2024-02-26T05:54:18;7.10;;;3.70;;
24619;SDS011;12763;55.802;37.404;2024-02-26T05:56:44;9.45;;;4.18;;
24619;SDS011;12763;55.802;37.404;2024-02-26T05:59:10;9.88;;;4.32;;
24619;SDS011;12763;55.802;37.404;2024-02-26T06:01:36;7.63;;;3.45;;
24619;SDS011;12763;55.802;37.404;2024-02-26T06:04:01;8.50;;;4.68;;
24619;SDS011;12763;55.802;37.404;2024-02-26T06:06:27;12.75;;;3.63;;
24619;SDS011;12763;55.802;37.404;2024-02-26T06:08:53;11.70;;;4.00;;
24619;SDS011;12763;55.802;37.404;2024-02-26T06:11:19;9.30;;;3.92;;
24619;SDS011;12763;55.802;37.404;2024-02-26T06:13:45;7.80;;;3.78;;
24619;SDS011;12763;55.802;37.404;2024-02-26T06:16:11;10.23;;;4.82;;
24619;SDS011;12763;55.802;37.404;2024-02-26T06:18:37;11.02;;;5.20;;
24619;SDS011;12763;55.802;37.404;2024-02-26T06:21:02;11.77;;;4.20;;
24619;SDS011;12763;55.802;37.404;2024-02-26T06:23:29;7.68;;;4.03;;
24619;SDS011;12763;55.802;37.404;2024-02-26T06:25:54;24.40;;;5.00;;
24619;SDS011;12763;55.802;37.404;2024-02-26T06:28:20;16.88;;;4.18;;
24619;SDS011;12763;55.802;37.404;2024-02-26T06:30:46;11.02;;;4.57;;
24619;SDS011;12763;55.802;37.404;2024-02-26T06:33:12;13.13;;;4.43;;
24619;SDS011;12763;55.802;37.404;2024-02-26T06:35:39;12.75;;;4.90;;
24619;SDS011;12763;55.802;37.404;2024-02-26T06:38:05;10.38;;;3.88;;
24619;SDS011;12763;55.802;37.404;2024-02-26T06:40:31;10.05;;;5.32;;
24619;SDS011;12763;55.802;37.404;2024-02-26T06:42:56;15.27;;;6.35;;
24619;SDS011;12763;55.802;37.404;2024-02-26T06:45:22;14.07;;;4.88;;
24619;SDS011;12763;55.802;37.404;2024-02-26T06:47:48;13.13;;;5.43;;
24619;SDS011;12763;55.802;37.404;2024-02-26T06:50:14;14.05;;;4.60;;
24619;SDS011;12763;55.802;37.404;2024-02-26T06:55:24;10.57;;;4.73;;
24619;SDS011;12763;55.802;37.404;2024-02-26T06:57:50;6.97;;;4.20;;
24619;SDS011;12763;55.802;37.404;2024-02-26T07:00:16;9.48;;;4.88;;
24619;SDS011;12763;55.802;37.404;2024-02-26T07:02:42;11.10;;;4.28;;
24619;SDS011;12763;55.802;37.404;2024-02-26T07:05:09;10.00;;;4.78;;
24619;SDS011;12763;55.802;37.404;2024-02-26T07:07:35;7.13;;;4.22;;
24619;SDS011;12763;55.802;37.404;2024-02-26T07:10:01;12.00;;;5.55;;
24619;SDS011;12763;55.802;37.404;2024-02-26T07:12:30;12.98;;;4.43;;
24619;SDS011;12763;55.802;37.404;2024-02-26T07:14:56;11.45;;;4.60;;
24619;SDS011;12763;55.802;37.404;2024-02-26T07:17:23;10.00;;;4.70;;
24619;SDS011;12763;55.802;37.404;2024-02-26T07:19:49;18.98;;;4.95;;
24619;SDS011;12763;55.802;37.404;2024-02-26T07:22:15;10.00;;;4.53;;
24619;SDS011;12763;55.802;37.404;2024-02-26T07:24:41;14.05;;;4.90;;
24619;SDS011;12763;55.802;37.404;2024-02-26T07:27:07;14.30;;;5.45;;
24619;SDS011;12763;55.802;37.404;2024-02-26T07:29:33;14.02;;;5.28;;
24619;SDS011;12763;55.802;37.404;2024-02-26T07:31:59;16.30;;;6.03;;
24619;SDS011;12763;55.802;37.404;2024-02-26T07:34:25;13.90;;;6.20;;
24619;SDS011;12763;55.802;37.404;2024-02-26T07:36:57;20.25;;;6.18;;
24619;SDS011;12763;55.802;37.404;2024-02-26T07:39:23;13.55;;;5.15;;
24619;SDS011;12763;55.802;37.404;2024-02-26T07:41:49;11.00;;;5.75;;
24619;SDS011;12763;55.802;37.404;2024-02-26T07:44:18;17.13;;;5.95;;
24619;SDS011;12763;55.802;37.404;2024-02-26T07:46:44;10.45;;;4.45;;
24619;SDS011;12763;55.802;37.404;2024-02-26T07:49:10;22.52;;;5.45;;
24619;SDS011;12763;55.802;37.404;2024-02-26T07:51:36;17.80;;;6.75;;
24619;SDS011;12763;55.802;37.404;2024-02-26T07:54:04;20.58;;;6.68;;
24619;SDS011;12763;55.802;37.404;2024-02-26T07:56:30;16.30;;;5.82;;
24619;SDS011;12763;55.802;37.404;2024-02-26T07:58:56;9.77;;;4.15;;
24619;SDS011;12763;55.802;37.404;2024-02-26T08:01:22;14.73;;;5.53;;
24619;SDS011;12763;55.802;37.404;2024-02-26T08:03:48;15.48;;;5.18;;
24619;SDS011;12763;55.802;37.404;2024-02-26T08:06:14;16.00;;;5.57;;
24619;SDS011;12763;55.802;37.404;2024-02-26T08:08:41;13.80;;;4.70;;
24619;SDS011;12763;55.802;37.404;2024-02-26T08:11:09;11.95;;;4.93;;
24619;SDS011;12763;55.802;37.404;2024-02-26T08:13:35;12.40;;;5.97;;
24619;SDS011;12763;55.802;37.404;2024-02-26T08:16:01;20.55;;;7.15;;
24619;SDS011;12763;55.802;37.404;2024-02-26T08:18:27;15.20;;;6.22;;
24619;SDS011;12763;55.802;37.404;2024-02-26T08:20:53;13.00;;;4.88;;
24619;SDS011;12763;55.802;37.404;2024-02-26T08:23:19;13.32;;;5.88;;
24619;SDS011;12763;55.802;37.404;2024-02-26T08:25:45;13.35;;;6.43;;
24619;SDS011;12763;55.802;37.404;2024-02-26T08:28:11;13.02;;;4.60;;
24619;SDS011;12763;55.802;37.404;2024-02-26T08:30:38;13.27;;;4.85;;
24619;SDS011;12763;55.802;37.404;2024-02-26T08:33:04;20.63;;;5.72;;
24619;SDS011;12763;55.802;37.404;2024-02-26T08:35:30;12.85;;;5.53;;
24619;SDS011;12763;55.802;37.404;2024-02-26T08:37:56;13.82;;;5.90;;
24619;SDS011;12763;55.802;37.404;2024-02-26T08:40:22;10.88;;;5.38;;
24619;SDS011;12763;55.802;37.404;2024-02-26T08:42:47;11.75;;;4.88;;
24619;SDS011;12763;55.802;37.404;2024-02-26T08:45:14;15.48;;;5.93;;
24619;SDS011;12763;55.802;37.404;2024-02-26T08:47:40;11.23;;;5.05;;
24619;SDS011;12763;55.802;37.404;2024-02-26T08:50:06;9.88;;;5.13;;
24619;SDS011;12763;55.802;37.404;2024-02-26T08:52:32;13.85;;;5.13;;
24619;SDS011;12763;55.802;37.404;2024-02-26T08:54:58;13.23;;;5.60;;
24619;SDS011;12763;55.802;37.404;2024-02-26T08:57:24;11.20;;;5.15;;
24619;SDS011;12763;55.802;37.404;2024-02-26T08:59:52;15.30;;;5.57;;
24619;SDS011;12763;55.802;37.404;2024-02-26T09:02:18;16.90;;;5.07;;
24619;SDS011;12763;55.802;37.404;2024-02-26T09:04:45;11.73;;;4.65;;
24619;SDS011;12763;55.802;37.404;2024-02-26T09:07:11;10.43;;;5.07;;
24619;SDS011;12763;55.802;37.404;2024-02-26T09:09:37;9.80;;;5.05;;
24619;SDS011;12763;55.802;37.404;2024-02-26T09:12:03;14.23;;;4.85;;
24619;SDS011;12763;55.802;37.404;2024-02-26T09:14:29;10.48;;;5.43;;
24619;SDS011;12763;55.802;37.404;2024-02-26T09:16:54;16.75;;;6.90;;
24619;SDS011;12763;55.802;37.404;2024-02-26T09:19:20;10.00;;;4.38;;
24619;SDS011;12763;55.802;37.404;2024-02-26T09:21:46;13.70;;;6.10;;
24619;SDS011;12763;55.802;37.404;2024-02-26T09:24:12;18.95;;;5.32;;
24619;SDS011;12763;55.802;37.404;2024-02-26T09:26:38;14.10;;;4.93;;
24619;SDS011;12763;55.802;37.404;2024-02-26T09:29:04;15.65;;;5.93;;
24619;SDS011;12763;55.802;37.404;2024-02-26T09:31:31;14.40;;;5.40;;
24619;SDS011;12763;55.802;37.404;2024-02-26T09:33:57;12.27;;;5.20;;
24619;SDS011;12763;55.802;37.404;2024-02-26T09:36:23;16.63;;;5.43;;
24619;SDS011;12763;55.802;37.404;2024-02-26T09:38:49;12.93;;;4.80;;
24619;SDS011;12763;55.802;37.404;2024-02-26T09:41:15;17.85;;;5.65;;
24619;SDS011;12763;55.802;37.404;2024-02-26T09:43:44;11.02;;;4.55;;
24619;SDS011;12763;55.802;37.404;2024-02-26T09:46:13;11.57;;;5.78;;
24619;SDS011;12763;55.802;37.404;2024-02-26T09:48:42;12.32;;;5.40;;
24619;SDS011;12763;55.802;37.404;2024-02-26T09:51:10;16.48;;;5.22;;
24619;SDS011;12763;55.802;37.404;2024-02-26T09:53:38;11.30;;;4.82;;
24619;SDS011;12763;55.802;37.404;2024-02-26T09:56:08;17.90;;;4.57;;
24619;SDS011;12763;55.802;37.404;2024-02-26T09:58:35;15.85;;;5.47;;
24619;SDS011;12763;55.802;37.404;2024-02-26T10:01:03;8.88;;;4.40;;
24619;SDS011;12763;55.802;37.404;2024-02-26T10:06:06;13.10;;;4.47;;
24619;SDS011;12763;55.802;37.404;2024-02-26T10:08:34;10.18;;;4.88;;
24619;SDS011;12763;55.802;37.404;2024-02-26T10:11:00;12.68;;;4.50;;
24619;SDS011;12763;55.802;37.404;2024-02-26T10:13:26;14.95;;;5.65;;
24619;SDS011;12763;55.802;37.404;2024-02-26T10:15:52;12.90;;;5.05;;
24619;SDS011;12763;55.802;37.404;2024-02-26T10:18:18;9.10;;;4.13;;
24619;SDS011;12763;55.802;37.404;2024-02-26T10:21:00;13.35;;;4.53;;
24619;SDS011;12763;55.802;37.404;2024-02-26T10:23:27;9.00;;;4.80;;
24619;SDS011;12763;55.802;37.404;2024-02-26T10:25:56;20.08;;;5.10;;
24619;SDS011;12763;55.802;37.404;2024-02-26T10:28:22;14.98;;;6.20;;
24619;SDS011;12763;55.802;37.404;2024-02-26T10:30:48;12.77;;;4.55;;
24619;SDS011;12763;55.802;37.404;2024-02-26T10:33:17;14.85;;;4.85;;
24619;SDS011;12763;55.802;37.404;2024-02-26T10:35:47;11.45;;;4.68;;
24619;SDS011;12763;55.802;37.404;2024-02-26T10:38:13;12.02;;;4.82;;
24619;SDS011;12763;55.802;37.404;2024-02-26T10:40:42;10.73;;;5.15;;
24619;SDS011;12763;55.802;37.404;2024-02-26T10:43:08;10.32;;;4.80;;
24619;SDS011;12763;55.802;37.404;2024-02-26T10:45:34;12.02;;;4.72;;
24619;SDS011;12763;55.802;37.404;2024-02-26T10:48:02;16.17;;;5.30;;
24619;SDS011;12763;55.802;37.404;2024-02-26T10:50:28;10.40;;;5.15;;
24619;SDS011;12763;55.802;37.404;2024-02-26T10:52:54;15.63;;;4.43;;
24619;SDS011;12763;55.802;37.404;2024-02-26T10:55:21;11.00;;;4.38;;
24619;SDS011;12763;55.802;37.404;2024-02-26T10:57:48;17.10;;;5.35;;
24619;SDS011;12763;55.802;37.404;2024-02-26T11:00:18;15.02;;;4.97;;
24619;SDS011;12763;55.802;37.404;2024-02-26T11:02:44;12.30;;;4.95;;
24619;SDS011;12763;55.802;37.404;2024-02-26T11:05:31;11.65;;;3.97;;
24619;SDS011;12763;55.802;37.404;2024-02-26T11:07:59;15.43;;;5.18;;
24619;SDS011;12763;55.802;37.404;2024-02-26T11:10:26;19.30;;;5.47;;
24619;SDS011;12763;55.802;37.404;2024-02-26T11:12:55;9.00;;;4.75;;
24619;SDS011;12763;55.802;37.404;2024-02-26T11:15:25;13.50;;;4.75;;
24619;SDS011;12763;55.802;37.404;2024-02-26T11:17:52;14.68;;;5.00;;
24619;SDS011;12763;55.802;37.404;2024-02-26T11:20:38;10.30;;;4.82;;
24619;SDS011;12763;55.802;37.404;2024-02-26T11:23:06;10.80;;;4.72;;
24619;SDS011;12763;55.802;37.404;2024-02-26T11:25:32;11.82;;;4.35;;
24619;SDS011;12763;55.802;37.404;2024-02-26T11:28:00;11.73;;;4.63;;
24619;SDS011;12763;55.802;37.404;2024-02-26T11:30:29;9.30;;;4.35;;
24619;SDS011;12763;55.802;37.404;2024-02-26T11:32:58;13.90;;;4.65;;
24619;SDS011;12763;55.802;37.404;2024-02-26T11:35:24;22.13;;;4.70;;
24619;SDS011;12763;55.802;37.404;2024-02-26T11:37:53;11.00;;;4.38;;
24619;SDS011;12763;55.802;37.404;2024-02-26T11:40:24;14.48;;;5.03;;
24619;SDS011;12763;55.802;37.404;2024-02-26T11:42:51;15.88;;;4.65;;
24619;SDS011;12763;55.802;37.404;2024-02-26T11:46:00;12.07;;;4.25;;
24619;SDS011;12763;55.802;37.404;2024-02-26T11:48:24;12.75;;;5.18;;
24619;SDS011;12763;55.802;37.404;2024-02-26T11:50:52;11.68;;;4.35;;
24619;SDS011;12763;55.802;37.404;2024-02-26T11:53:19;10.55;;;4.10;;
24619;SDS011;12763;55.802;37.404;2024-02-26T11:55:48;18.05;;;5.72;;
24619;SDS011;12763;55.802;37.404;2024-02-26T11:58:42;16.02;;;5.03;;
24619;SDS011;12763;55.802;37.404;2024-02-26T12:04:44;15.63;;;5.38;;
24619;SDS011;12763;55.802;37.404;2024-02-26T12:06:58;13.57;;;4.70;;
24619;SDS011;12763;55.802;37.404;2024-02-26T12:09:33;10.63;;;4.68;;
24619;SDS011;12763;55.802;37.404;2024-02-26T12:12:06;14.95;;;5.28;;
24619;SDS011;12763;55.802;37.404;2024-02-26T12:14:38;14.65;;;5.28;;
24619;SDS011;12763;55.802;37.404;2024-02-26T12:17:05;13.52;;;5.10;;
24619;SDS011;12763;55.802;37.404;2024-02-26T12:19:33;9.57;;;4.63;;
24619;SDS011;12763;55.802;37.404;2024-02-26T12:22:01;16.90;;;5.00;;
24619;SDS011;12763;55.802;37.404;2024-02-26T12:24:27;21.75;;;4.78;;
24619;SDS011;12763;55.802;37.404;2024-02-26T12:26:52;10.98;;;4.78;;
24619;SDS011;12763;55.802;37.404;2024-02-26T12:29:18;14.88;;;5.00;;
24619;SDS011;12763;55.802;37.404;2024-02-26T12:31:44;16.15;;;4.95;;
24619;SDS011;12763;55.802;37.404;2024-02-26T12:34:10;16.33;;;5.07;;
24619;SDS011;12763;55.802;37.404;2024-02-26T12:36:36;16.75;;;5.32;;
24619;SDS011;12763;55.802;37.404;2024-02-26T12:39:04;15.52;;;6.05;;
24619;SDS011;12763;55.802;37.404;2024-02-26T12:41:33;22.10;;;8.52;;
24619;SDS011;12763;55.802;37.404;2024-02-26T12:44:00;16.30;;;6.07;;
24619;SDS011;12763;55.802;37.404;2024-02-26T12:46:26;13.40;;;4.95;;
24619;SDS011;12763;55.802;37.404;2024-02-26T12:48:54;17.25;;;5.38;;
24619;SDS011;12763;55.802;37.404;2024-02-26T12:51:23;10.40;;;5.65;;
24619;SDS011;12763;55.802;37.404;2024-02-26T12:53:49;13.77;;;5.38;;
24619;SDS011;12763;55.802;37.404;2024-02-26T12:56:17;17.63;;;5.00;;
24619;SDS011;12763;55.802;37.404;2024-02-26T12:58:43;17.58;;;6.10;;
24619;SDS011;12763;55.802;37.404;2024-02-26T13:01:14;13.98;;;5.05;;
24619;SDS011;12763;55.802;37.404;2024-02-26T13:03:42;15.50;;;6.03;;
24619;SDS011;12763;55.802;37.404;2024-02-26T13:06:09;25.83;;;5.47;;
24619;SDS011;12763;55.802;37.404;2024-02-26T13:08:36;8.80;;;4.53;;
24619;SDS011;12763;55.802;37.404;2024-02-26T13:11:02;17.20;;;4.65;;
24619;SDS011;12763;55.802;37.404;2024-02-26T13:13:28;14.57;;;5.10;;
24619;SDS011;12763;55.802;37.404;2024-02-26T13:16:04;14.80;;;4.72;;
24619;SDS011;12763;55.802;37.404;2024-02-26T13:18:34;15.27;;;4.53;;
24619;SDS011;12763;55.802;37.404;2024-02-26T13:21:11;10.02;;;4.43;;
24619;SDS011;12763;55.802;37.404;2024-02-26T13:23:39;12.65;;;4.85;;
24619;SDS011;12763;55.802;37.404;2024-02-26T13:26:06;14.70;;;5.75;;
24619;SDS011;12763;55.802;37.404;2024-02-26T13:28:33;10.75;;;4.97;;
24619;SDS011;12763;55.802;37.404;2024-02-26T13:30:59;12.82;;;4.82;;
24619;SDS011;12763;55.802;37.404;2024-02-26T13:33:27;15.77;;;4.70;;
24619;SDS011;12763;55.802;37.404;2024-02-26T13:35:55;24.13;;;5.53;;
24619;SDS011;12763;55.802;37.404;2024-02-26T13:38:22;15.77;;;4.55;;
24619;SDS011;12763;55.802;37.404;2024-02-26T13:40:49;18.17;;;4.45;;
24619;SDS011;12763;55.802;37.404;2024-02-26T13:43:16;12.65;;;4.95;;
24619;SDS011;12763;55.802;37.404;2024-02-26T13:45:42;16.23;;;4.70;;
24619;SDS011;12763;55.802;37.404;2024-02-26T13:48:10;14.05;;;4.85;;
24619;SDS011;12763;55.802;37.404;2024-02-26T13:50:37;11.88;;;5.25;;
24619;SDS011;12763;55.802;37.404;2024-02-26T13:53:04;9.32;;;4.50;;
24619;SDS011;12763;55.802;37.404;2024-02-26T13:55:32;8.50;;;4.30;;
24619;SDS011;12763;55.802;37.404;2024-02-26T13:57:59;12.57;;;4.88;;
24619;SDS011;12763;55.802;37.404;2024-02-26T14:00:29;13.85;;;4.88;;
24619;SDS011;12763;55.802;37.404;2024-02-26T14:02:59;12.82;;;4.63;;
24619;SDS011;12763;55.802;37.404;2024-02-26T14:05:25;9.63;;;4.30;;
24619;SDS011;12763;55.802;37.404;2024-02-26T14:07:52;12.60;;;4.68;;
24619;SDS011;12763;55.802;37.404;2024-02-26T14:10:19;13.65;;;4.22;;
24619;SDS011;12763;55.802;37.404;2024-02-26T14:12:45;13.38;;;4.00;;
24619;SDS011;12763;55.802;37.404;2024-02-26T14:15:11;10.77;;;4.80;;
24619;SDS011;12763;55.802;37.404;2024-02-26T14:17:37;15.60;;;4.38;;
24619;SDS011;12763;55.802;37.404;2024-02-26T14:20:03;14.27;;;4.18;;
24619;SDS011;12763;55.802;37.404;2024-02-26T14:22:30;14.05;;;4.00;;
24619;SDS011;12763;55.802;37.404;2024-02-26T14:24:56;14.15;;;4.55;;
24619;SDS011;12763;55.802;37.404;2024-02-26T14:27:23;16.90;;;4.68;;
24619;SDS011;12763;55.802;37.404;2024-02-26T14:29:49;7.30;;;3.72;;
24619;SDS011;12763;55.802;37.404;2024-02-26T14:32:15;10.00;;;4.28;;